sensor_id;sensor_type;location;lat;lon;timestamp;P1;durP1;ratioP1;P2;durP2;ratioP2
54699;SDS011;40599;53.132;6.090;2023-08-06T00:34:25;33.57;;;23.43;;
54699;SDS011;40599;53.132;6.090;2023-08-06T00:36:51;31.35;;;19.92;;
54699;SDS011;40599;53.132;6.090;2023-08-06T00:39:18;28.63;;;18.83;;
54699;SDS011;40599;53.132;6.090;2023-08-06T00:41:45;31.17;;;19.10;;
54699;SDS011;40599;53.132;6.090;2023-08-06T00:44:11;29.40;;;18.65;;
54699;SDS011;40599;53.132;6.090;2023-08-06T00:46:37;32.08;;;19.35;;
54699;SDS011;40599;53.132;6.090;2023-08-06T00:49:03;31.42;;;19.40;;
54699;SDS011;40599;53.132;6.090;2023-08-06T00:51:30;31.35;;;19.05;;
54699;SDS011;40599;53.132;6.090;2023-08-06T00:53:56;29.67;;;19.25;;
54699;SDS011;40599;53.132;6.090;2023-08-06T00:56:22;30.80;;;19.05;;
54699;SDS011;40599;53.132;6.090;2023-08-06T00:58:48;27.00;;;18.23;;
54699;SDS011;40599;53.132;6.090;2023-08-06T01:01:15;33.13;;;18.65;;
54699;SDS011;40599;53.132;6.090;2023-08-06T01:03:41;27.88;;;18.98;;
54699;SDS011;40599;53.132;6.090;2023-08-06T01:06:08;29.93;;;19.20;;
54699;SDS011;40599;53.132;6.090;2023-08-06T01:08:44;28.73;;;18.35;;
54699;SDS011;40599;53.132;6.090;2023-08-06T01:13:47;33.58;;;22.50;;
54699;SDS011;40599;53.132;6.090;2023-08-06T01:16:15;29.83;;;19.60;;
54699;SDS011;40599;53.132;6.090;2023-08-06T01:18:42;28.13;;;18.57;;
54699;SDS011;40599;53.132;6.090;2023-08-06T01:21:12;25.80;;;17.60;;
54699;SDS011;40599;53.132;6.090;2023-08-06T01:23:38;26.83;;;18.50;;
54699;SDS011;40599;53.132;6.090;2023-08-06T01:28:33;28.10;;;18.95;;
54699;SDS011;40599;53.132;6.090;2023-08-06T01:31:02;25.50;;;17.37;;
54699;SDS011;40599;53.132;6.090;2023-08-06T01:35:55;24.93;;;16.27;;
54699;SDS011;40599;53.132;6.090;2023-08-06T01:38:22;25.02;;;16.77;;
54699;SDS011;40599;53.132;6.090;2023-08-06T01:40:48;23.70;;;16.65;;
54699;SDS011;40599;53.132;6.090;2023-08-06T01:43:14;26.70;;;16.25;;
54699;SDS011;40599;53.132;6.090;2023-08-06T01:45:41;25.02;;;16.60;;
54699;SDS011;40599;53.132;6.090;2023-08-06T01:48:07;26.48;;;17.15;;
54699;SDS011;40599;53.132;6.090;2023-08-06T01:50:33;21.10;;;15.45;;
54699;SDS011;40599;53.132;6.090;2023-08-06T01:52:59;22.63;;;14.65;;
54699;SDS011;40599;53.132;6.090;2023-08-06T01:55:25;27.08;;;16.85;;
54699;SDS011;40599;53.132;6.090;2023-08-06T01:57:52;46.03;;;31.98;;
54699;SDS011;40599;53.132;6.090;2023-08-06T02:00:21;46.33;;;32.40;;
54699;SDS011;40599;53.132;6.090;2023-08-06T02:02:48;25.15;;;18.80;;
54699;SDS011;40599;53.132;6.090;2023-08-06T02:05:14;23.95;;;17.63;;
54699;SDS011;40599;53.132;6.090;2023-08-06T02:07:40;28.90;;;17.63;;
54699;SDS011;40599;53.132;6.090;2023-08-06T02:10:06;28.13;;;18.25;;
54699;SDS011;40599;53.132;6.090;2023-08-06T02:12:33;27.58;;;17.52;;
54699;SDS011;40599;53.132;6.090;2023-08-06T02:14:59;27.10;;;16.58;;
54699;SDS011;40599;53.132;6.090;2023-08-06T02:17:25;24.65;;;16.70;;
54699;SDS011;40599;53.132;6.090;2023-08-06T02:19:51;23.27;;;16.30;;
54699;SDS011;40599;53.132;6.090;2023-08-06T02:22:17;25.40;;;16.88;;
54699;SDS011;40599;53.132;6.090;2023-08-06T02:24:48;25.83;;;17.10;;
54699;SDS011;40599;53.132;6.090;2023-08-06T02:29:41;24.50;;;15.70;;
54699;SDS011;40599;53.132;6.090;2023-08-06T02:32:07;28.65;;;16.60;;
54699;SDS011;40599;53.132;6.090;2023-08-06T02:34:33;39.22;;;30.55;;
54699;SDS011;40599;53.132;6.090;2023-08-06T02:36:59;28.50;;;17.88;;
54699;SDS011;40599;53.132;6.090;2023-08-06T02:39:25;30.38;;;21.45;;
54699;SDS011;40599;53.132;6.090;2023-08-06T02:41:52;28.30;;;16.25;;
54699;SDS011;40599;53.132;6.090;2023-08-06T02:44:18;25.77;;;16.40;;
54699;SDS011;40599;53.132;6.090;2023-08-06T02:46:44;20.92;;;14.38;;
54699;SDS011;40599;53.132;6.090;2023-08-06T02:49:11;24.45;;;15.48;;
54699;SDS011;40599;53.132;6.090;2023-08-06T02:51:37;19.00;;;14.98;;
54699;SDS011;40599;53.132;6.090;2023-08-06T02:54:03;22.55;;;14.40;;
54699;SDS011;40599;53.132;6.090;2023-08-06T02:56:29;21.70;;;13.95;;
54699;SDS011;40599;53.132;6.090;2023-08-06T02:58:56;24.70;;;14.75;;
54699;SDS011;40599;53.132;6.090;2023-08-06T03:01:22;24.38;;;14.13;;
54699;SDS011;40599;53.132;6.090;2023-08-06T03:03:48;26.75;;;15.00;;
54699;SDS011;40599;53.132;6.090;2023-08-06T03:06:14;27.38;;;14.30;;
54699;SDS011;40599;53.132;6.090;2023-08-06T03:08:40;19.17;;;13.45;;
54699;SDS011;40599;53.132;6.090;2023-08-06T03:11:06;23.80;;;15.07;;
54699;SDS011;40599;53.132;6.090;2023-08-06T03:13:32;27.60;;;15.38;;
54699;SDS011;40599;53.132;6.090;2023-08-06T03:15:59;22.38;;;14.85;;
54699;SDS011;40599;53.132;6.090;2023-08-06T03:18:25;22.58;;;14.60;;
54699;SDS011;40599;53.132;6.090;2023-08-06T03:20:52;24.35;;;15.30;;
54699;SDS011;40599;53.132;6.090;2023-08-06T03:23:18;25.58;;;16.00;;
54699;SDS011;40599;53.132;6.090;2023-08-06T03:25:44;24.00;;;16.33;;
54699;SDS011;40599;53.132;6.090;2023-08-06T03:28:11;23.35;;;14.40;;
54699;SDS011;40599;53.132;6.090;2023-08-06T03:30:38;22.92;;;15.30;;
54699;SDS011;40599;53.132;6.090;2023-08-06T03:33:04;27.58;;;15.02;;
54699;SDS011;40599;53.132;6.090;2023-08-06T03:35:30;21.85;;;14.90;;
54699;SDS011;40599;53.132;6.090;2023-08-06T03:37:56;25.65;;;16.65;;
54699;SDS011;40599;53.132;6.090;2023-08-06T03:40:23;24.17;;;15.25;;
54699;SDS011;40599;53.132;6.090;2023-08-06T03:42:49;26.10;;;17.23;;
54699;SDS011;40599;53.132;6.090;2023-08-06T03:45:15;24.25;;;16.27;;
54699;SDS011;40599;53.132;6.090;2023-08-06T03:47:41;32.60;;;17.83;;
54699;SDS011;40599;53.132;6.090;2023-08-06T03:50:07;30.48;;;16.08;;
54699;SDS011;40599;53.132;6.090;2023-08-06T03:52:46;28.52;;;18.33;;
54699;SDS011;40599;53.132;6.090;2023-08-06T03:55:12;27.40;;;18.93;;
54699;SDS011;40599;53.132;6.090;2023-08-06T03:57:38;25.88;;;16.73;;
54699;SDS011;40599;53.132;6.090;2023-08-06T04:00:04;25.27;;;17.00;;
54699;SDS011;40599;53.132;6.090;2023-08-06T04:02:30;33.40;;;19.10;;
54699;SDS011;40599;53.132;6.090;2023-08-06T04:04:57;30.38;;;19.65;;
54699;SDS011;40599;53.132;6.090;2023-08-06T04:09:54;33.07;;;19.33;;
54699;SDS011;40599;53.132;6.090;2023-08-06T04:12:24;32.43;;;19.83;;
54699;SDS011;40599;53.132;6.090;2023-08-06T04:14:51;26.13;;;17.10;;
54699;SDS011;40599;53.132;6.090;2023-08-06T04:17:18;21.92;;;15.27;;
54699;SDS011;40599;53.132;6.090;2023-08-06T04:19:46;26.17;;;17.40;;
54699;SDS011;40599;53.132;6.090;2023-08-06T04:22:12;25.77;;;15.97;;
54699;SDS011;40599;53.132;6.090;2023-08-06T04:24:39;28.70;;;18.30;;
54699;SDS011;40599;53.132;6.090;2023-08-06T04:27:05;28.60;;;17.60;;
54699;SDS011;40599;53.132;6.090;2023-08-06T04:29:31;32.15;;;20.10;;
54699;SDS011;40599;53.132;6.090;2023-08-06T04:31:58;33.60;;;19.02;;
54699;SDS011;40599;53.132;6.090;2023-08-06T04:34:24;30.02;;;19.33;;
54699;SDS011;40599;53.132;6.090;2023-08-06T04:36:50;28.60;;;18.13;;
54699;SDS011;40599;53.132;6.090;2023-08-06T04:39:16;31.42;;;19.02;;
54699;SDS011;40599;53.132;6.090;2023-08-06T04:41:42;29.88;;;18.45;;
54699;SDS011;40599;53.132;6.090;2023-08-06T04:44:09;28.63;;;19.00;;
54699;SDS011;40599;53.132;6.090;2023-08-06T04:46:35;25.17;;;16.75;;
54699;SDS011;40599;53.132;6.090;2023-08-06T04:49:01;23.70;;;15.75;;
54699;SDS011;40599;53.132;6.090;2023-08-06T04:51:46;27.38;;;18.00;;
54699;SDS011;40599;53.132;6.090;2023-08-06T04:54:12;27.37;;;18.23;;
54699;SDS011;40599;53.132;6.090;2023-08-06T04:56:38;23.30;;;15.77;;
54699;SDS011;40599;53.132;6.090;2023-08-06T04:59:04;21.02;;;15.55;;
54699;SDS011;40599;53.132;6.090;2023-08-06T05:01:31;22.67;;;15.13;;
54699;SDS011;40599;53.132;6.090;2023-08-06T05:07:19;30.17;;;18.30;;
54699;SDS011;40599;53.132;6.090;2023-08-06T05:09:46;21.85;;;15.85;;
54699;SDS011;40599;53.132;6.090;2023-08-06T05:12:12;22.90;;;16.95;;
54699;SDS011;40599;53.132;6.090;2023-08-06T05:14:38;20.02;;;15.57;;
54699;SDS011;40599;53.132;6.090;2023-08-06T05:17:04;26.63;;;18.15;;
54699;SDS011;40599;53.132;6.090;2023-08-06T05:19:30;31.17;;;18.50;;
54699;SDS011;40599;53.132;6.090;2023-08-06T05:21:56;32.17;;;20.08;;
54699;SDS011;40599;53.132;6.090;2023-08-06T05:24:23;31.80;;;18.63;;
54699;SDS011;40599;53.132;6.090;2023-08-06T05:26:49;27.65;;;18.08;;
54699;SDS011;40599;53.132;6.090;2023-08-06T05:29:15;31.70;;;19.17;;
54699;SDS011;40599;53.132;6.090;2023-08-06T05:31:42;32.20;;;19.63;;
54699;SDS011;40599;53.132;6.090;2023-08-06T05:34:08;35.85;;;20.25;;
54699;SDS011;40599;53.132;6.090;2023-08-06T05:36:34;30.60;;;19.15;;
54699;SDS011;40599;53.132;6.090;2023-08-06T05:39:00;32.78;;;19.75;;
54699;SDS011;40599;53.132;6.090;2023-08-06T05:41:27;31.25;;;19.90;;
54699;SDS011;40599;53.132;6.090;2023-08-06T05:43:53;29.17;;;19.75;;
54699;SDS011;40599;53.132;6.090;2023-08-06T05:46:19;31.17;;;19.83;;
54699;SDS011;40599;53.132;6.090;2023-08-06T05:48:45;33.50;;;21.52;;
54699;SDS011;40599;53.132;6.090;2023-08-06T05:51:11;32.72;;;20.98;;
54699;SDS011;40599;53.132;6.090;2023-08-06T05:53:38;27.02;;;19.90;;
54699;SDS011;40599;53.132;6.090;2023-08-06T05:56:04;30.98;;;21.52;;
54699;SDS011;40599;53.132;6.090;2023-08-06T05:58:30;32.58;;;20.20;;
54699;SDS011;40599;53.132;6.090;2023-08-06T06:00:57;28.60;;;20.30;;
54699;SDS011;40599;53.132;6.090;2023-08-06T06:03:24;28.30;;;19.95;;
54699;SDS011;40599;53.132;6.090;2023-08-06T06:05:50;27.47;;;19.17;;
54699;SDS011;40599;53.132;6.090;2023-08-06T06:08:16;24.20;;;18.05;;
54699;SDS011;40599;53.132;6.090;2023-08-06T06:14:05;23.40;;;17.43;;
54699;SDS011;40599;53.132;6.090;2023-08-06T06:16:31;25.58;;;17.45;;
54699;SDS011;40599;53.132;6.090;2023-08-06T06:18:57;24.85;;;16.65;;
54699;SDS011;40599;53.132;6.090;2023-08-06T06:21:23;25.98;;;17.92;;
54699;SDS011;40599;53.132;6.090;2023-08-06T06:23:50;26.05;;;18.10;;
54699;SDS011;40599;53.132;6.090;2023-08-06T06:26:18;24.37;;;17.73;;
54699;SDS011;40599;53.132;6.090;2023-08-06T06:28:45;25.63;;;17.55;;
54699;SDS011;40599;53.132;6.090;2023-08-06T06:31:11;31.20;;;18.25;;
54699;SDS011;40599;53.132;6.090;2023-08-06T06:33:38;23.13;;;17.55;;
54699;SDS011;40599;53.132;6.090;2023-08-06T06:36:04;22.95;;;17.23;;
54699;SDS011;40599;53.132;6.090;2023-08-06T06:38:32;21.30;;;16.00;;
54699;SDS011;40599;53.132;6.090;2023-08-06T06:40:59;20.10;;;14.88;;
54699;SDS011;40599;53.132;6.090;2023-08-06T06:43:25;23.58;;;15.20;;
54699;SDS011;40599;53.132;6.090;2023-08-06T06:45:58;17.38;;;13.50;;
54699;SDS011;40599;53.132;6.090;2023-08-06T06:48:25;19.10;;;14.50;;
54699;SDS011;40599;53.132;6.090;2023-08-06T06:50:51;20.63;;;13.77;;
54699;SDS011;40599;53.132;6.090;2023-08-06T06:53:18;15.93;;;11.82;;
54699;SDS011;40599;53.132;6.090;2023-08-06T06:55:44;15.40;;;12.18;;
54699;SDS011;40599;53.132;6.090;2023-08-06T06:58:10;18.83;;;11.20;;
54699;SDS011;40599;53.132;6.090;2023-08-06T07:00:37;13.55;;;9.07;;
54699;SDS011;40599;53.132;6.090;2023-08-06T07:03:03;12.98;;;10.65;;
54699;SDS011;40599;53.132;6.090;2023-08-06T07:05:29;13.20;;;9.73;;
54699;SDS011;40599;53.132;6.090;2023-08-06T07:07:55;11.65;;;9.77;;
54699;SDS011;40599;53.132;6.090;2023-08-06T07:10:22;11.05;;;9.30;;
54699;SDS011;40599;53.132;6.090;2023-08-06T07:12:48;12.40;;;10.25;;
54699;SDS011;40599;53.132;6.090;2023-08-06T07:21:59;13.50;;;9.97;;
54699;SDS011;40599;53.132;6.090;2023-08-06T07:24:25;14.15;;;10.32;;
54699;SDS011;40599;53.132;6.090;2023-08-06T07:26:51;15.15;;;9.63;;
54699;SDS011;40599;53.132;6.090;2023-08-06T07:29:17;12.43;;;9.85;;
54699;SDS011;40599;53.132;6.090;2023-08-06T07:31:46;12.70;;;10.23;;
54699;SDS011;40599;53.132;6.090;2023-08-06T07:34:13;11.88;;;9.65;;
54699;SDS011;40599;53.132;6.090;2023-08-06T07:36:39;12.90;;;9.18;;
54699;SDS011;40599;53.132;6.090;2023-08-06T07:39:06;13.57;;;9.63;;
54699;SDS011;40599;53.132;6.090;2023-08-06T07:41:32;11.52;;;9.68;;
54699;SDS011;40599;53.132;6.090;2023-08-06T07:43:58;14.05;;;9.55;;
54699;SDS011;40599;53.132;6.090;2023-08-06T07:46:24;10.30;;;8.18;;
54699;SDS011;40599;53.132;6.090;2023-08-06T07:48:50;14.48;;;9.70;;
54699;SDS011;40599;53.132;6.090;2023-08-06T07:51:16;13.15;;;8.73;;
54699;SDS011;40599;53.132;6.090;2023-08-06T07:53:42;10.93;;;8.82;;
54699;SDS011;40599;53.132;6.090;2023-08-06T07:56:09;11.77;;;9.25;;
54699;SDS011;40599;53.132;6.090;2023-08-06T07:58:35;9.90;;;7.47;;
54699;SDS011;40599;53.132;6.090;2023-08-06T08:01:01;11.13;;;8.57;;
54699;SDS011;40599;53.132;6.090;2023-08-06T08:03:27;10.82;;;8.18;;
54699;SDS011;40599;53.132;6.090;2023-08-06T08:05:54;12.10;;;7.97;;
54699;SDS011;40599;53.132;6.090;2023-08-06T08:08:24;14.10;;;8.60;;
54699;SDS011;40599;53.132;6.090;2023-08-06T08:10:50;8.93;;;7.10;;
54699;SDS011;40599;53.132;6.090;2023-08-06T08:16:23;8.93;;;6.73;;
54699;SDS011;40599;53.132;6.090;2023-08-06T08:18:49;8.65;;;6.47;;
54699;SDS011;40599;53.132;6.090;2023-08-06T08:21:15;8.52;;;5.97;;
54699;SDS011;40599;53.132;6.090;2023-08-06T08:23:42;8.30;;;6.80;;
54699;SDS011;40599;53.132;6.090;2023-08-06T08:26:09;9.25;;;6.63;;
54699;SDS011;40599;53.132;6.090;2023-08-06T08:28:35;9.65;;;6.30;;
54699;SDS011;40599;53.132;6.090;2023-08-06T08:31:01;8.32;;;6.53;;
54699;SDS011;40599;53.132;6.090;2023-08-06T08:33:27;11.20;;;6.03;;
54699;SDS011;40599;53.132;6.090;2023-08-06T08:35:53;8.55;;;7.28;;
54699;SDS011;40599;53.132;6.090;2023-08-06T08:38:19;7.43;;;6.65;;
54699;SDS011;40599;53.132;6.090;2023-08-06T08:40:46;7.75;;;5.78;;
54699;SDS011;40599;53.132;6.090;2023-08-06T08:43:13;8.23;;;6.17;;
54699;SDS011;40599;53.132;6.090;2023-08-06T08:45:40;7.97;;;5.90;;
54699;SDS011;40599;53.132;6.090;2023-08-06T08:48:18;8.60;;;5.07;;
54699;SDS011;40599;53.132;6.090;2023-08-06T08:50:45;10.23;;;5.00;;
54699;SDS011;40599;53.132;6.090;2023-08-06T08:53:11;6.87;;;5.30;;
54699;SDS011;40599;53.132;6.090;2023-08-06T08:55:38;8.17;;;4.70;;
54699;SDS011;40599;53.132;6.090;2023-08-06T08:58:05;8.32;;;4.88;;
54699;SDS011;40599;53.132;6.090;2023-08-06T09:00:31;5.70;;;4.68;;
54699;SDS011;40599;53.132;6.090;2023-08-06T09:02:57;8.30;;;4.55;;
54699;SDS011;40599;53.132;6.090;2023-08-06T09:05:25;6.07;;;3.87;;
54699;SDS011;40599;53.132;6.090;2023-08-06T09:07:52;5.20;;;3.77;;
54699;SDS011;40599;53.132;6.090;2023-08-06T09:10:19;4.95;;;3.45;;
54699;SDS011;40599;53.132;6.090;2023-08-06T09:12:51;6.67;;;4.70;;
54699;SDS011;40599;53.132;6.090;2023-08-06T09:15:18;6.60;;;3.90;;
54699;SDS011;40599;53.132;6.090;2023-08-06T09:17:44;6.40;;;4.35;;
54699;SDS011;40599;53.132;6.090;2023-08-06T09:20:11;7.68;;;4.93;;
54699;SDS011;40599;53.132;6.090;2023-08-06T09:22:37;5.67;;;4.20;;
54699;SDS011;40599;53.132;6.090;2023-08-06T09:25:04;6.82;;;4.28;;
54699;SDS011;40599;53.132;6.090;2023-08-06T09:27:35;7.80;;;4.47;;
54699;SDS011;40599;53.132;6.090;2023-08-06T09:30:05;6.77;;;4.50;;
54699;SDS011;40599;53.132;6.090;2023-08-06T09:32:47;5.30;;;4.43;;
54699;SDS011;40599;53.132;6.090;2023-08-06T09:38:07;5.93;;;4.10;;
54699;SDS011;40599;53.132;6.090;2023-08-06T09:40:34;6.27;;;4.60;;
54699;SDS011;40599;53.132;6.090;2023-08-06T09:43:00;7.60;;;4.50;;
54699;SDS011;40599;53.132;6.090;2023-08-06T09:45:33;6.68;;;3.55;;
54699;SDS011;40599;53.132;6.090;2023-08-06T09:48:00;4.77;;;3.37;;
54699;SDS011;40599;53.132;6.090;2023-08-06T09:50:30;4.63;;;3.10;;
54699;SDS011;40599;53.132;6.090;2023-08-06T09:52:56;6.37;;;2.80;;
54699;SDS011;40599;53.132;6.090;2023-08-06T09:55:23;5.28;;;2.75;;
54699;SDS011;40599;53.132;6.090;2023-08-06T09:57:51;6.97;;;2.80;;
54699;SDS011;40599;53.132;6.090;2023-08-06T10:00:18;3.92;;;2.63;;
54699;SDS011;40599;53.132;6.090;2023-08-06T10:02:44;6.40;;;3.40;;
54699;SDS011;40599;53.132;6.090;2023-08-06T10:05:11;4.60;;;3.10;;
54699;SDS011;40599;53.132;6.090;2023-08-06T10:07:37;6.57;;;2.65;;
54699;SDS011;40599;53.132;6.090;2023-08-06T10:10:06;4.50;;;2.90;;
54699;SDS011;40599;53.132;6.090;2023-08-06T10:14:59;4.17;;;2.43;;
54699;SDS011;40599;53.132;6.090;2023-08-06T10:20:40;5.23;;;3.00;;
54699;SDS011;40599;53.132;6.090;2023-08-06T10:23:06;3.65;;;2.50;;
54699;SDS011;40599;53.132;6.090;2023-08-06T10:25:39;3.13;;;2.03;;
54699;SDS011;40599;53.132;6.090;2023-08-06T10:28:12;5.93;;;2.60;;
54699;SDS011;40599;53.132;6.090;2023-08-06T10:30:46;5.17;;;2.27;;
54699;SDS011;40599;53.132;6.090;2023-08-06T10:33:13;3.60;;;2.30;;
54699;SDS011;40599;53.132;6.090;2023-08-06T10:35:45;3.80;;;2.70;;
54699;SDS011;40599;53.132;6.090;2023-08-06T10:38:20;3.50;;;2.40;;
54699;SDS011;40599;53.132;6.090;2023-08-06T10:43:35;3.67;;;2.13;;
54699;SDS011;40599;53.132;6.090;2023-08-06T10:46:08;2.92;;;1.73;;
54699;SDS011;40599;53.132;6.090;2023-08-06T10:48:35;4.87;;;2.00;;
54699;SDS011;40599;53.132;6.090;2023-08-06T10:51:02;4.10;;;2.73;;
54699;SDS011;40599;53.132;6.090;2023-08-06T10:53:29;3.40;;;2.27;;
54699;SDS011;40599;53.132;6.090;2023-08-06T10:55:56;3.08;;;2.08;;
54699;SDS011;40599;53.132;6.090;2023-08-06T10:58:22;3.50;;;2.05;;
54699;SDS011;40599;53.132;6.090;2023-08-06T11:03:14;2.70;;;2.10;;
54699;SDS011;40599;53.132;6.090;2023-08-06T11:05:41;4.78;;;2.60;;
54699;SDS011;40599;53.132;6.090;2023-08-06T11:08:22;4.90;;;2.30;;
54699;SDS011;40599;53.132;6.090;2023-08-06T11:10:48;5.27;;;2.43;;
54699;SDS011;40599;53.132;6.090;2023-08-06T11:13:18;3.20;;;2.03;;
54699;SDS011;40599;53.132;6.090;2023-08-06T11:15:45;5.40;;;3.07;;
54699;SDS011;40599;53.132;6.090;2023-08-06T11:18:11;3.78;;;2.28;;
54699;SDS011;40599;53.132;6.090;2023-08-06T11:20:38;5.05;;;2.78;;
54699;SDS011;40599;53.132;6.090;2023-08-06T11:23:05;6.40;;;2.30;;
54699;SDS011;40599;53.132;6.090;2023-08-06T11:27:57;5.77;;;2.60;;
54699;SDS011;40599;53.132;6.090;2023-08-06T11:30:23;10.85;;;2.35;;
54699;SDS011;40599;53.132;6.090;2023-08-06T11:32:50;5.78;;;2.85;;
54699;SDS011;40599;53.132;6.090;2023-08-06T11:35:16;6.22;;;2.70;;
54699;SDS011;40599;53.132;6.090;2023-08-06T11:37:45;4.18;;;2.95;;
54699;SDS011;40599;53.132;6.090;2023-08-06T11:40:12;4.43;;;2.63;;
54699;SDS011;40599;53.132;6.090;2023-08-06T11:42:40;6.77;;;3.43;;
54699;SDS011;40599;53.132;6.090;2023-08-06T11:45:08;4.80;;;2.57;;
54699;SDS011;40599;53.132;6.090;2023-08-06T11:47:37;5.53;;;2.87;;
54699;SDS011;40599;53.132;6.090;2023-08-06T11:50:07;5.27;;;3.23;;
54699;SDS011;40599;53.132;6.090;2023-08-06T11:52:33;3.85;;;2.55;;
54699;SDS011;40599;53.132;6.090;2023-08-06T11:55:00;3.92;;;2.95;;
54699;SDS011;40599;53.132;6.090;2023-08-06T11:57:35;4.37;;;2.80;;
54699;SDS011;40599;53.132;6.090;2023-08-06T12:00:05;5.23;;;2.23;;
54699;SDS011;40599;53.132;6.090;2023-08-06T12:02:33;5.37;;;2.37;;
54699;SDS011;40599;53.132;6.090;2023-08-06T12:05:01;5.17;;;2.60;;
54699;SDS011;40599;53.132;6.090;2023-08-06T12:07:29;5.00;;;2.60;;
54699;SDS011;40599;53.132;6.090;2023-08-06T12:09:56;4.20;;;2.63;;
54699;SDS011;40599;53.132;6.090;2023-08-06T12:12:22;3.25;;;2.05;;
54699;SDS011;40599;53.132;6.090;2023-08-06T12:14:49;5.00;;;2.20;;
54699;SDS011;40599;53.132;6.090;2023-08-06T12:17:15;4.57;;;2.33;;
54699;SDS011;40599;53.132;6.090;2023-08-06T12:19:43;5.13;;;2.65;;
54699;SDS011;40599;53.132;6.090;2023-08-06T12:22:10;4.00;;;2.63;;
54699;SDS011;40599;53.132;6.090;2023-08-06T12:24:36;4.15;;;2.25;;
54699;SDS011;40599;53.132;6.090;2023-08-06T12:27:02;4.13;;;2.33;;
54699;SDS011;40599;53.132;6.090;2023-08-06T12:29:29;4.90;;;2.42;;
54699;SDS011;40599;53.132;6.090;2023-08-06T12:32:03;5.90;;;2.37;;
54699;SDS011;40599;53.132;6.090;2023-08-06T12:34:29;5.80;;;2.57;;
54699;SDS011;40599;53.132;6.090;2023-08-06T12:36:55;8.25;;;2.45;;
54699;SDS011;40599;53.132;6.090;2023-08-06T12:39:22;5.88;;;2.75;;
54699;SDS011;40599;53.132;6.090;2023-08-06T12:41:48;4.57;;;2.55;;
54699;SDS011;40599;53.132;6.090;2023-08-06T12:44:15;7.43;;;2.70;;
54699;SDS011;40599;53.132;6.090;2023-08-06T12:46:41;4.68;;;2.72;;
54699;SDS011;40599;53.132;6.090;2023-08-06T12:49:07;4.03;;;2.40;;
54699;SDS011;40599;53.132;6.090;2023-08-06T12:51:33;3.67;;;2.22;;
54699;SDS011;40599;53.132;6.090;2023-08-06T12:54:00;3.97;;;2.10;;
54699;SDS011;40599;53.132;6.090;2023-08-06T12:56:26;4.88;;;2.38;;
54699;SDS011;40599;53.132;6.090;2023-08-06T12:58:52;4.07;;;2.30;;
54699;SDS011;40599;53.132;6.090;2023-08-06T13:01:18;4.32;;;2.15;;
54699;SDS011;40599;53.132;6.090;2023-08-06T13:03:44;3.70;;;2.50;;
54699;SDS011;40599;53.132;6.090;2023-08-06T13:06:10;4.00;;;2.45;;
54699;SDS011;40599;53.132;6.090;2023-08-06T13:08:37;4.30;;;2.20;;
54699;SDS011;40599;53.132;6.090;2023-08-06T13:11:04;3.00;;;2.17;;
54699;SDS011;40599;53.132;6.090;2023-08-06T13:15:56;5.27;;;2.53;;
54699;SDS011;40599;53.132;6.090;2023-08-06T13:18:22;4.75;;;2.47;;
54699;SDS011;40599;53.132;6.090;2023-08-06T13:20:48;4.30;;;2.38;;
54699;SDS011;40599;53.132;6.090;2023-08-06T13:23:17;4.67;;;2.50;;
54699;SDS011;40599;53.132;6.090;2023-08-06T13:52:27;4.17;;;2.63;;
54699;SDS011;40599;53.132;6.090;2023-08-06T13:54:53;5.00;;;2.67;;
54699;SDS011;40599;53.132;6.090;2023-08-06T13:57:19;4.80;;;2.63;;
54699;SDS011;40599;53.132;6.090;2023-08-06T13:59:45;4.18;;;2.42;;
54699;SDS011;40599;53.132;6.090;2023-08-06T14:02:11;3.85;;;2.22;;
54699;SDS011;40599;53.132;6.090;2023-08-06T14:04:38;5.68;;;2.42;;
54699;SDS011;40599;53.132;6.090;2023-08-06T14:07:05;3.77;;;2.43;;
54699;SDS011;40599;53.132;6.090;2023-08-06T14:09:31;4.00;;;2.25;;
54699;SDS011;40599;53.132;6.090;2023-08-06T14:11:59;4.70;;;2.30;;
54699;SDS011;40599;53.132;6.090;2023-08-06T14:14:25;4.15;;;2.45;;
54699;SDS011;40599;53.132;6.090;2023-08-06T14:19:19;4.05;;;2.50;;
54699;SDS011;40599;53.132;6.090;2023-08-06T14:21:45;4.50;;;2.40;;
54699;SDS011;40599;53.132;6.090;2023-08-06T14:24:11;5.00;;;2.60;;
54699;SDS011;40599;53.132;6.090;2023-08-06T14:26:38;2.45;;;1.85;;
54699;SDS011;40599;53.132;6.090;2023-08-06T14:29:04;3.22;;;2.00;;
54699;SDS011;40599;53.132;6.090;2023-08-06T14:31:30;3.17;;;2.05;;
54699;SDS011;40599;53.132;6.090;2023-08-06T14:33:56;3.42;;;2.17;;
54699;SDS011;40599;53.132;6.090;2023-08-06T14:36:22;3.83;;;2.13;;
54699;SDS011;40599;53.132;6.090;2023-08-06T14:38:48;5.20;;;2.30;;
54699;SDS011;40599;53.132;6.090;2023-08-06T14:41:15;3.28;;;2.20;;
54699;SDS011;40599;53.132;6.090;2023-08-06T14:46:07;4.63;;;2.60;;
54699;SDS011;40599;53.132;6.090;2023-08-06T14:48:33;4.25;;;2.20;;
54699;SDS011;40599;53.132;6.090;2023-08-06T14:51:00;3.23;;;2.33;;
54699;SDS011;40599;53.132;6.090;2023-08-06T14:53:27;3.53;;;2.15;;
54699;SDS011;40599;53.132;6.090;2023-08-06T14:55:53;4.22;;;2.15;;
54699;SDS011;40599;53.132;6.090;2023-08-06T14:58:20;5.40;;;2.20;;
54699;SDS011;40599;53.132;6.090;2023-08-06T15:00:46;5.50;;;2.55;;
54699;SDS011;40599;53.132;6.090;2023-08-06T15:03:12;3.42;;;2.17;;
54699;SDS011;40599;53.132;6.090;2023-08-06T15:05:38;5.50;;;2.50;;
54699;SDS011;40599;53.132;6.090;2023-08-06T15:08:04;4.95;;;2.60;;
54699;SDS011;40599;53.132;6.090;2023-08-06T15:10:30;4.78;;;2.65;;
54699;SDS011;40599;53.132;6.090;2023-08-06T15:12:56;3.83;;;2.58;;
54699;SDS011;40599;53.132;6.090;2023-08-06T15:15:23;3.90;;;2.58;;
54699;SDS011;40599;53.132;6.090;2023-08-06T15:17:49;5.07;;;2.45;;
54699;SDS011;40599;53.132;6.090;2023-08-06T15:20:15;5.25;;;2.10;;
54699;SDS011;40599;53.132;6.090;2023-08-06T15:22:41;3.92;;;2.47;;
54699;SDS011;40599;53.132;6.090;2023-08-06T15:25:08;3.38;;;2.17;;
54699;SDS011;40599;53.132;6.090;2023-08-06T15:27:34;4.82;;;2.35;;
54699;SDS011;40599;53.132;6.090;2023-08-06T15:30:00;4.18;;;2.25;;
54699;SDS011;40599;53.132;6.090;2023-08-06T15:32:26;7.95;;;2.42;;
54699;SDS011;40599;53.132;6.090;2023-08-06T15:34:53;6.70;;;2.90;;
54699;SDS011;40599;53.132;6.090;2023-08-06T15:37:19;3.55;;;2.60;;
54699;SDS011;40599;53.132;6.090;2023-08-06T15:39:45;4.50;;;2.38;;
54699;SDS011;40599;53.132;6.090;2023-08-06T15:42:11;4.32;;;2.50;;
54699;SDS011;40599;53.132;6.090;2023-08-06T15:44:38;6.00;;;3.03;;
54699;SDS011;40599;53.132;6.090;2023-08-06T15:47:04;6.78;;;2.80;;
54699;SDS011;40599;53.132;6.090;2023-08-06T15:49:30;6.55;;;3.10;;
54699;SDS011;40599;53.132;6.090;2023-08-06T15:51:56;8.30;;;3.45;;
54699;SDS011;40599;53.132;6.090;2023-08-06T15:54:22;8.48;;;3.28;;
54699;SDS011;40599;53.132;6.090;2023-08-06T15:56:49;8.60;;;2.70;;
54699;SDS011;40599;53.132;6.090;2023-08-06T15:59:30;4.63;;;2.75;;
54699;SDS011;40599;53.132;6.090;2023-08-06T16:01:57;5.20;;;3.23;;
54699;SDS011;40599;53.132;6.090;2023-08-06T16:04:27;5.10;;;3.00;;
54699;SDS011;40599;53.132;6.090;2023-08-06T16:06:53;5.33;;;3.23;;
54699;SDS011;40599;53.132;6.090;2023-08-06T16:11:48;3.55;;;2.30;;
54699;SDS011;40599;53.132;6.090;2023-08-06T16:14:18;5.00;;;2.40;;
54699;SDS011;40599;53.132;6.090;2023-08-06T16:16:45;6.30;;;2.40;;
54699;SDS011;40599;53.132;6.090;2023-08-06T16:19:11;6.30;;;2.53;;
54699;SDS011;40599;53.132;6.090;2023-08-06T16:21:37;6.25;;;2.30;;
54699;SDS011;40599;53.132;6.090;2023-08-06T16:26:30;3.60;;;2.50;;
54699;SDS011;40599;53.132;6.090;2023-08-06T16:31:23;4.30;;;2.10;;
54699;SDS011;40599;53.132;6.090;2023-08-06T16:33:49;3.33;;;2.20;;